Time,TemperatureF,DewpointF,PressureIn,WindDirection,WindDirectionDegrees,WindSpeedMPH,WindSpeedGustMPH,Humidity,HourlyPrecipIn,Conditions,Clouds,dailyrainin,SoftwareType,DateUTC
2013-11-10 00:07:00,50.2,41.0,30.02,NNW,343,1.0,8.0,72,0.00,,,0.00,weatherlink.com 1.10,2013-11-10 05:07:00,
2013-11-10 00:22:00,50.1,41.0,30.01,WSW,253,4.0,7.0,72,0.00,,,0.00,weatherlink.com 1.10,2013-11-10 05:22:00,
2013-11-10 00:37:00,-999.0,-99.9,30.00,North,-999,-999.0,-999.0,-999,0.00,,,0.00,weatherlink.com 1.10,2013-11-10 05:37:00,
2013-11-10 00:52:00,-999.0,-99.9,30.00,North,-999,-999.0,-999.0,-999,0.00,,,0.00,weatherlink.com 1.10,2013-11-10 05:52:00,
2013-11-10 01:07:00,-999.0,-99.9,29.99,North,-999,-999.0,-999.0,-999,0.00,,,0.00,weatherlink.com 1.10,2013-11-10 06:07:00,
2013-11-10 01:23:00,-999.0,-99.9,29.99,North,-999,-999.0,-999.0,-999,0.00,,,0.00,weatherlink.com 1.10,2013-11-10 06:23:00,
2013-11-10 01:38:00,-999.0,-99.9,29.98,North,-999,-999.0,-999.0,-999,0.00,,,0.00,weatherlink.com 1.10,2013-11-10 06:38:00,
2013-11-10 01:53:00,-999.0,-99.9,29.97,North,-999,-999.0,-999.0,-999,0.00,,,0.00,weatherlink.com 1.10,2013-11-10 06:53:00,
2013-11-10 02:08:00,-999.0,-99.9,29.96,North,-999,-999.0,-999.0,-999,0.00,,,0.00,weatherlink.com 1.10,2013-11-10 07:08:00,
2013-11-10 02:23:00,-999.0,-99.9,29.95,North,-999,-999.0,-999.0,-999,0.00,,,0.00,weatherlink.com 1.10,2013-11-10 07:23:00,
2013-11-10 02:38:00,-999.0,-99.9,29.94,North,-999,-999.0,-999.0,-999,0.00,,,0.00,weatherlink.com 1.10,2013-11-10 07:38:00,
2013-11-10 02:53:00,-999.0,-99.9,29.93,North,-999,-999.0,-999.0,-999,0.00,,,0.00,weatherlink.com 1.10,2013-11-10 07:53:00,
2013-11-10 03:08:00,-999.0,-99.9,29.93,North,-999,-999.0,-999.0,-999,0.00,,,0.00,weatherlink.com 1.10,2013-11-10 08:08:00,
2013-11-10 03:23:00,-999.0,-99.9,29.92,North,-999,-999.0,-999.0,-999,0.00,,,0.00,weatherlink.com 1.10,2013-11-10 08:23:00,
2013-11-10 03:38:00,-999.0,-99.9,29.92,North,-999,-999.0,-999.0,-999,0.00,,,0.00,weatherlink.com 1.10,2013-11-10 08:38:00,
2013-11-10 03:53:00,-999.0,-99.9,29.91,North,-999,-999.0,-999.0,-999,0.00,,,0.00,weatherlink.com 1.10,2013-11-10 08:53:00,
2013-11-10 04:08:00,-999.0,-99.9,29.91,North,-999,-999.0,-999.0,-999,0.00,,,0.00,weatherlink.com 1.10,2013-11-10 09:08:00,
2013-11-10 04:23:00,-999.0,-99.9,29.90,North,-999,-999.0,-999.0,-999,0.00,,,0.00,weatherlink.com 1.10,2013-11-10 09:23:00,
2013-11-10 04:38:00,-999.0,-99.9,29.89,North,-999,-999.0,-999.0,-999,0.00,,,0.00,weatherlink.com 1.10,2013-11-10 09:38:00,
2013-11-10 04:54:00,-999.0,-99.9,29.89,North,-999,-999.0,-999.0,-999,0.00,,,0.00,weatherlink.com 1.10,2013-11-10 09:54:00,
2013-11-10 05:09:00,-999.0,-99.9,29.88,North,-999,-999.0,-999.0,-999,0.00,,,0.00,weatherlink.com 1.10,2013-11-10 10:09:00,
2013-11-10 05:24:00,-999.0,-99.9,29.88,North,-999,-999.0,-999.0,-999,0.00,,,0.00,weatherlink.com 1.10,2013-11-10 10:24:00,
2013-11-10 05:39:00,-999.0,-99.9,29.87,North,-999,-999.0,-999.0,-999,0.00,,,0.00,weatherlink.com 1.10,2013-11-10 10:39:00,
2013-11-10 05:54:00,-999.0,-99.9,29.86,North,-999,-999.0,-999.0,-999,0.00,,,0.00,weatherlink.com 1.10,2013-11-10 10:54:00,
2013-11-10 06:09:00,-999.0,-99.9,29.86,North,-999,-999.0,-999.0,-999,0.00,,,0.00,weatherlink.com 1.10,2013-11-10 11:09:00,
2013-11-10 06:24:00,-999.0,-99.9,29.85,North,-999,-999.0,-999.0,-999,0.00,,,0.00,weatherlink.com 1.10,2013-11-10 11:24:00,
2013-11-10 06:39:00,-999.0,-99.9,29.85,North,-999,-999.0,-999.0,-999,0.00,,,0.00,weatherlink.com 1.10,2013-11-10 11:39:00,
2013-11-10 06:54:00,-999.0,-99.9,29.86,North,-999,-999.0,-999.0,-999,0.00,,,0.00,weatherlink.com 1.10,2013-11-10 11:54:00,
2013-11-10 07:09:00,-999.0,-99.9,29.85,North,-999,-999.0,-999.0,-999,0.00,,,0.00,weatherlink.com 1.10,2013-11-10 12:09:00,
2013-11-10 07:24:00,-999.0,-99.9,29.86,North,-999,-999.0,-999.0,-999,0.00,,,0.00,weatherlink.com 1.10,2013-11-10 12:24:00,
2013-11-10 07:39:00,-999.0,-99.9,29.85,North,-999,-999.0,-999.0,-999,0.00,,,0.00,weatherlink.com 1.10,2013-11-10 12:39:00,
2013-11-10 08:09:00,56.3,48.0,29.84,ESE,120,3.0,15.0,73,0.00,,,0.00,weatherlink.com 1.10,2013-11-10 13:09:00,
2013-11-10 08:24:00,56.6,49.0,29.84,West,264,3.0,10.0,75,0.00,,,0.00,weatherlink.com 1.10,2013-11-10 13:24:00,
2013-11-10 08:40:00,56.8,48.0,29.83,ESE,119,1.0,10.0,72,0.00,,,0.00,weatherlink.com 1.10,2013-11-10 13:40:00,
2013-11-10 08:55:00,57.3,48.0,29.82,SSE,152,4.0,12.0,70,0.00,,,0.00,weatherlink.com 1.10,2013-11-10 13:55:00,
2013-11-10 09:10:00,57.3,48.0,29.82,NW,307,7.0,11.0,72,0.00,,,0.00,weatherlink.com 1.10,2013-11-10 14:10:00,
2013-11-10 09:25:00,57.1,49.0,29.82,SSE,150,1.0,12.0,73,0.00,,,0.00,weatherlink.com 1.10,2013-11-10 14:25:00,
2013-11-10 09:40:00,56.7,48.0,29.82,NE,56,1.0,13.0,72,0.00,,,0.00,weatherlink.com 1.10,2013-11-10 14:40:00,
2013-11-10 09:55:00,57.6,48.0,29.81,WSW,255,5.0,18.0,70,0.00,,,0.00,weatherlink.com 1.10,2013-11-10 14:55:00,
2013-11-10 10:10:00,57.7,47.0,29.80,WNW,291,3.0,13.0,68,0.00,,,0.00,weatherlink.com 1.10,2013-11-10 15:10:00,
2013-11-10 10:25:00,58.2,48.0,29.79,SW,215,3.0,14.0,68,0.00,,,0.00,weatherlink.com 1.10,2013-11-10 15:25:00,
2013-11-10 10:40:00,57.0,46.0,29.78,NNW,343,5.0,11.0,67,0.00,,,0.00,weatherlink.com 1.10,2013-11-10 15:40:00,
2013-11-10 10:55:00,56.4,46.0,29.78,WNW,283,7.0,12.0,69,0.00,,,0.00,weatherlink.com 1.10,2013-11-10 15:55:00,
2013-11-10 11:10:00,57.8,46.0,29.76,NNW,332,1.0,15.0,66,0.00,,,0.00,weatherlink.com 1.10,2013-11-10 16:10:00,
2013-11-10 11:25:00,57.9,46.0,29.75,WSW,255,3.0,19.0,64,0.00,,,0.00,weatherlink.com 1.10,2013-11-10 16:25:00,
2013-11-10 11:40:00,57.8,45.0,29.75,WSW,253,2.0,13.0,62,0.00,,,0.00,weatherlink.com 1.10,2013-11-10 16:40:00,
2013-11-10 11:55:00,57.5,44.0,29.73,South,170,2.0,11.0,61,0.00,,,0.00,weatherlink.com 1.10,2013-11-10 16:55:00,
2013-11-10 12:10:00,57.1,44.0,29.73,SW,235,7.0,12.0,62,0.00,,,0.00,weatherlink.com 1.10,2013-11-10 17:10:00,
2013-11-10 12:25:00,57.1,45.0,29.72,SW,215,1.0,15.0,65,0.00,,,0.00,weatherlink.com 1.10,2013-11-10 17:25:00,
2013-11-10 12:40:00,56.9,45.0,29.72,WSW,245,6.0,13.0,64,0.00,,,0.00,weatherlink.com 1.10,2013-11-10 17:40:00,
2013-11-10 12:55:00,57.2,45.0,29.71,West,277,2.0,12.0,64,0.00,,,0.00,weatherlink.com 1.10,2013-11-10 17:55:00,
2013-11-10 13:10:00,58.0,45.0,29.71,SW,231,2.0,13.0,63,0.00,,,0.00,weatherlink.com 1.10,2013-11-10 18:10:00,
2013-11-10 13:25:00,56.9,45.0,29.71,WNW,291,3.0,15.0,64,0.00,,,0.00,weatherlink.com 1.10,2013-11-10 18:25:00,
2013-11-10 13:40:00,57.1,45.0,29.71,WNW,295,3.0,12.0,64,0.00,,,0.00,weatherlink.com 1.10,2013-11-10 18:40:00,
2013-11-10 13:55:00,57.4,45.0,29.70,West,278,6.0,14.0,63,0.00,,,0.00,weatherlink.com 1.10,2013-11-10 18:55:00,
2013-11-10 14:10:00,56.6,44.0,29.70,WNW,297,3.0,14.0,62,0.00,,,0.00,weatherlink.com 1.10,2013-11-10 19:10:00,
2013-11-10 14:25:00,56.8,44.0,29.70,WSW,240,5.0,13.0,62,0.00,,,0.00,weatherlink.com 1.10,2013-11-10 19:25:00,
2013-11-10 14:40:00,56.6,44.0,29.70,South,184,2.0,9.0,63,0.00,,,0.00,weatherlink.com 1.10,2013-11-10 19:40:00,
2013-11-10 14:55:00,56.8,45.0,29.70,WNW,301,4.0,11.0,64,0.00,,,0.00,weatherlink.com 1.10,2013-11-10 19:55:00,
2013-11-10 15:10:00,56.9,45.0,29.69,West,262,11.0,14.0,64,0.00,,,0.00,weatherlink.com 1.10,2013-11-10 20:10:00,
2013-11-10 15:25:00,55.8,45.0,29.70,WNW,298,9.0,13.0,67,0.00,,,0.00,weatherlink.com 1.10,2013-11-10 20:25:00,
2013-11-10 15:40:00,55.2,45.0,29.70,WSW,248,3.0,10.0,68,0.00,,,0.00,weatherlink.com 1.10,2013-11-10 20:40:00,
2013-11-10 15:55:00,54.9,44.0,29.70,WNW,297,4.0,8.0,68,0.00,,,0.00,weatherlink.com 1.10,2013-11-10 20:55:00,
2013-11-10 16:10:00,55.0,45.0,29.71,WSW,238,8.0,11.0,70,0.00,,,0.00,weatherlink.com 1.10,2013-11-10 21:10:00,
2013-11-10 16:25:00,50.0,45.0,29.75,NW,316,11.0,29.0,83,0.01,,,0.01,weatherlink.com 1.10,2013-11-10 21:25:00,
2013-11-10 16:40:00,47.1,44.0,29.77,NW,312,12.0,24.0,88,0.07,,,0.02,weatherlink.com 1.10,2013-11-10 21:40:00,
2013-11-10 16:56:00,46.8,44.0,29.78,NW,304,13.0,23.0,88,0.09,,,0.04,weatherlink.com 1.10,2013-11-10 21:56:00,
2013-11-10 17:11:00,46.1,43.0,29.78,NW,318,9.0,15.0,87,0.09,,,0.04,weatherlink.com 1.10,2013-11-10 22:11:00,
2013-11-10 17:26:00,45.9,42.0,29.78,NW,326,3.0,11.0,87,0.07,,,0.04,weatherlink.com 1.10,2013-11-10 22:26:00,
2013-11-10 17:41:00,45.8,43.0,29.77,WNW,295,1.0,7.0,88,0.01,,,0.04,weatherlink.com 1.10,2013-11-10 22:41:00,
2013-11-10 17:56:00,45.3,42.0,29.78,WNW,287,0.0,4.0,89,0.00,,,0.04,weatherlink.com 1.10,2013-11-10 22:56:00,
2013-11-10 18:11:00,44.7,42.0,29.78,West,260,5.0,5.0,90,0.00,,,0.04,weatherlink.com 1.10,2013-11-10 23:11:00,
2013-11-10 18:26:00,45.3,41.0,29.79,NNW,329,8.0,11.0,86,0.00,,,0.04,weatherlink.com 1.10,2013-11-10 23:26:00,
2013-11-10 18:41:00,46.1,41.0,29.79,WNW,293,5.0,13.0,82,0.00,,,0.04,weatherlink.com 1.10,2013-11-10 23:41:00,
2013-11-10 18:56:00,46.6,41.0,29.80,WNW,297,3.0,15.0,80,0.00,,,0.04,weatherlink.com 1.10,2013-11-10 23:56:00,
2013-11-10 19:11:00,46.5,41.0,29.80,NW,314,4.0,16.0,81,0.00,,,0.04,weatherlink.com 1.10,2013-11-11 00:11:00,
2013-11-10 19:26:00,46.8,41.0,29.80,WNW,291,5.0,14.0,80,0.00,,,0.04,weatherlink.com 1.10,2013-11-11 00:26:00,
2013-11-10 19:41:00,46.7,41.0,29.80,NW,314,1.0,11.0,80,0.00,,,0.04,weatherlink.com 1.10,2013-11-11 00:41:00,
2013-11-10 19:56:00,46.9,41.0,29.81,WNW,302,2.0,12.0,79,0.00,,,0.04,weatherlink.com 1.10,2013-11-11 00:56:00,
2013-11-10 20:11:00,47.6,40.0,29.81,NNW,342,6.0,16.0,76,0.00,,,0.04,weatherlink.com 1.10,2013-11-11 01:11:00,
2013-11-10 20:26:00,47.9,40.0,29.82,NNW,338,3.0,18.0,74,0.00,,,0.04,weatherlink.com 1.10,2013-11-11 01:26:00,
2013-11-10 20:41:00,47.7,39.0,29.82,WNW,301,2.0,16.0,73,0.00,,,0.04,weatherlink.com 1.10,2013-11-11 01:41:00,
2013-11-10 20:56:00,47.5,39.0,29.82,WNW,298,5.0,12.0,73,0.00,,,0.04,weatherlink.com 1.10,2013-11-11 01:56:00,
2013-11-10 21:11:00,47.4,40.0,29.82,WNW,297,7.0,16.0,74,0.00,,,0.04,weatherlink.com 1.10,2013-11-11 02:11:00,
2013-11-10 21:26:00,47.6,39.0,29.83,NW,317,6.0,18.0,72,0.00,,,0.04,weatherlink.com 1.10,2013-11-11 02:26:00,
2013-11-10 21:41:00,47.9,38.0,29.83,WNW,287,6.0,19.0,69,0.00,,,0.04,weatherlink.com 1.10,2013-11-11 02:41:00,
2013-11-10 21:56:00,48.1,37.0,29.83,WNW,293,8.0,21.0,66,0.00,,,0.04,weatherlink.com 1.10,2013-11-11 02:56:00,
2013-11-10 22:11:00,48.0,37.0,29.83,NW,309,7.0,15.0,67,0.00,,,0.04,weatherlink.com 1.10,2013-11-11 03:11:00,
2013-11-10 22:26:00,48.0,38.0,29.83,WNW,303,7.0,16.0,68,0.00,,,0.04,weatherlink.com 1.10,2013-11-11 03:26:00,
2013-11-10 22:41:00,47.9,38.0,29.84,NW,305,6.0,18.0,69,0.00,,,0.04,weatherlink.com 1.10,2013-11-11 03:41:00,
2013-11-10 22:56:00,47.9,38.0,29.84,NNW,335,10.0,18.0,68,0.00,,,0.04,weatherlink.com 1.10,2013-11-11 03:56:00,
2013-11-10 23:11:00,48.0,37.0,29.84,NW,323,3.0,15.0,67,0.00,,,0.04,weatherlink.com 1.10,2013-11-11 04:11:00,
2013-11-10 23:26:00,48.0,37.0,29.84,WNW,288,12.0,24.0,66,0.00,,,0.04,weatherlink.com 1.10,2013-11-11 04:26:00,
2013-11-10 23:41:00,48.2,37.0,29.84,SSW,208,6.0,17.0,66,0.00,,,0.04,weatherlink.com 1.10,2013-11-11 04:41:00,
2013-11-10 23:56:00,48.1,37.0,29.85,WNW,298,6.0,26.0,65,0.00,,,0.04,weatherlink.com 1.10,2013-11-11 04:56:00,